Time;durP1;ratioP1;P1;durP2;ratioP2;P2;SDS_P1;SDS_P2;PMS_P1;PMS_P2;Temp;Humidity;BMP_temperature;BMP_pressure;BME280_temperature;BME280_humidity;BME280_pressure;Samples;Min_cycle;Max_cycle;Signal;HPM_P1;HPM_P2
2021/11/02 00:02:20;;;;;;;11.27;2.60;;;;;;;;;;4974320;28;20145;-76
2021/11/02 00:04:50;;;;;;;9.55;2.70;;;;;;;;;;4974155;28;20046;-81
2021/11/02 00:07:19;;;;;;;9.98;2.88;;;;;;;;;;4974143;28;20043;-76
2021/11/02 00:09:51;;;;;;;14.48;3.33;;;;;;;;;;4974398;28;20514;-75
2021/11/02 00:12:20;;;;;;;7.40;2.60;;;;;;;;;;4956126;28;20039;-86
2021/11/02 00:14:47;;;;;;;9.18;2.50;;;;;;;;;;4974678;28;20408;-75
2021/11/02 00:17:22;;;;;;;13.02;3.08;;;;;;;;;;4974219;28;20038;-75
2021/11/02 00:19:57;;;;;;;11.40;2.78;;;;;;;;;;4941023;28;20061;-80
2021/11/02 00:22:27;;;;;;;14.35;3.35;;;;;;;;;;4973914;28;20065;-75
2021/11/02 00:27:27;;;;;;;16.63;3.88;;;;;;;;;;4972963;28;20555;-75
2021/11/02 00:29:54;;;;;;;11.20;3.03;;;;;;;;;;4974235;28;20057;-75
2021/11/02 00:32:22;;;;;;;18.98;3.42;;;;;;;;;;4955490;28;20071;-76
2021/11/02 00:34:50;;;;;;;10.82;3.28;;;;;;;;;;4957036;28;20114;-81
2021/11/02 00:37:18;;;;;;;19.33;4.07;;;;;;;;;;4956866;28;20142;-81
2021/11/02 00:39:45;;;;;;;12.93;2.92;;;;;;;;;;4940010;28;20043;-88
2021/11/02 00:42:14;;;;;;;19.50;3.17;;;;;;;;;;4957003;28;20147;-80
2021/11/02 00:44:45;;;;;;;14.90;3.63;;;;;;;;;;4957072;28;20043;-86
2021/11/02 00:47:17;;;;;;;16.33;3.15;;;;;;;;;;4956593;28;20050;-75
2021/11/02 00:49:45;;;;;;;;;;;;;;;;;;4943128;28;20520;-76
2021/11/02 00:52:13;;;;;;;15.23;3.38;;;;;;;;;;4977566;28;20405;-86
2021/11/02 00:54:43;;;;;;;11.75;3.30;;;;;;;;;;4960386;28;20042;-77
2021/11/02 00:57:12;;;;;;;15.15;3.40;;;;;;;;;;4959482;28;20054;-81
2021/11/02 00:59:41;;;;;;;11.77;2.88;;;;;;;;;;4974221;28;20034;-77
2021/11/02 01:02:11;;;;;;;13.73;3.28;;;;;;;;;;4973841;28;20045;-77
2021/11/02 01:04:42;;;;;;;15.50;3.50;;;;;;;;;;4959777;28;20043;-76
2021/11/02 01:07:13;;;;;;;10.55;3.08;;;;;;;;;;4977162;28;20121;-85
2021/11/02 01:09:41;;;;;;;10.65;2.60;;;;;;;;;;4959581;28;20419;-80
2021/11/02 01:12:12;;;;;;;7.50;2.38;;;;;;;;;;4977053;28;20090;-75
2021/11/02 01:14:40;;;;;;;8.52;2.60;;;;;;;;;;4959692;28;20094;-76
2021/11/02 01:17:08;;;;;;;11.52;2.80;;;;;;;;;;4959982;28;20508;-75
2021/11/02 01:19:36;;;;;;;10.90;2.65;;;;;;;;;;4944238;28;20054;-86
2021/11/02 01:22:04;;;;;;;11.82;2.80;;;;;;;;;;4978482;28;20493;-81
2021/11/02 01:24:33;;;;;;;5.68;2.40;;;;;;;;;;4978632;28;20046;-76
2021/11/02 01:27:02;;;;;;;10.13;2.65;;;;;;;;;;4979012;28;20043;-80
2021/11/02 01:29:32;;;;;;;11.65;2.30;;;;;;;;;;4979186;28;20116;-74
2021/11/02 01:32:02;;;;;;;9.68;2.40;;;;;;;;;;4978773;28;20053;-79
2021/11/02 01:34:36;;;;;;;10.48;2.20;;;;;;;;;;4978862;28;20038;-86
2021/11/02 01:37:04;;;;;;;7.82;2.50;;;;;;;;;;4947045;28;20070;-81
2021/11/02 01:39:33;;;;;;;6.45;2.05;;;;;;;;;;4977943;28;20039;-81
2021/11/02 01:42:02;;;;;;;6.35;1.80;;;;;;;;;;4978562;28;20051;-76
2021/11/02 01:44:30;;;;;;;8.65;1.63;;;;;;;;;;4978699;28;20058;-81
2021/11/02 01:46:58;;;;;;;7.63;1.98;;;;;;;;;;4978672;28;20159;-76
2021/11/02 01:49:35;;;;;;;9.10;1.52;;;;;;;;;;4963690;28;20522;-81
2021/11/02 01:52:03;;;;;;;5.97;1.83;;;;;;;;;;4979060;28;20050;-76
2021/11/02 01:54:32;;;;;;;6.50;1.88;;;;;;;;;;4978682;28;20037;-75
2021/11/02 01:57:00;;;;;;;2.15;1.00;;;;;;;;;;4996046;28;20488;-76
2021/11/02 01:59:31;;;;;;;5.47;1.40;;;;;;;;;;4978661;28;20606;-81
2021/11/02 02:02:34;;;;;;;2.05;1.08;;;;;;;;;;4993973;28;20058;-81
2021/11/02 02:05:17;;;;;;;3.58;1.23;;;;;;;;;;4962044;28;20046;-75
2021/11/02 02:08:05;;;;;;;4.10;1.15;;;;;;;;;;4963402;28;20411;-81
2021/11/02 02:10:55;;;;;;;3.38;1.55;;;;;;;;;;4963010;28;20042;-75
2021/11/02 02:13:33;;;;;;;1.70;1.00;;;;;;;;;;4962030;28;20444;-81
2021/11/02 02:16:41;;;;;;;2.00;0.90;;;;;;;;;;4977956;28;20046;-75
2021/11/02 02:19:30;;;;;;;3.80;1.13;;;;;;;;;;4882276;29;20052;-76
2021/11/02 02:22:07;;;;;;;5.05;1.20;;;;;;;;;;4881667;29;20080;-85
2021/11/02 02:25:04;;;;;;;1.98;0.90;;;;;;;;;;4882132;29;20055;-76
2021/11/02 02:27:37;;;;;;;3.90;1.23;;;;;;;;;;4882312;29;20048;-81
2021/11/02 02:30:10;;;;;;;3.20;0.90;;;;;;;;;;4882423;29;20080;-80
2021/11/02 02:32:42;;;;;;;3.00;1.98;;;;;;;;;;4881824;29;20045;-76
2021/11/02 02:35:31;;;;;;;3.92;1.00;;;;;;;;;;4881526;29;20040;-76
2021/11/02 02:38:00;;;;;;;1.65;0.80;;;;;;;;;;4896562;29;20088;-75
2021/11/02 02:40:27;;;;;;;3.15;1.05;;;;;;;;;;4865434;29;20517;-85
2021/11/02 02:42:58;;;;;;;3.40;0.85;;;;;;;;;;4881737;29;20056;-75
2021/11/02 02:45:26;;;;;;;8.32;1.13;;;;;;;;;;4896566;29;20116;-74
2021/11/02 02:47:56;;;;;;;4.43;1.10;;;;;;;;;;4880880;29;20044;-74
2021/11/02 02:50:26;;;;;;;2.58;1.00;;;;;;;;;;4897045;29;20040;-84
2021/11/02 02:52:54;;;;;;;2.45;0.85;;;;;;;;;;4935290;28;20085;-84
2021/11/02 02:55:22;;;;;;;2.70;0.93;;;;;;;;;;4995152;28;20117;-86
2021/11/02 02:57:55;;;;;;;4.28;1.15;;;;;;;;;;4977814;28;20511;-82
2021/11/02 03:00:23;;;;;;;3.10;1.20;;;;;;;;;;4976682;28;20412;-81
2021/11/02 03:02:52;;;;;;;2.20;0.70;;;;;;;;;;4993088;28;20038;-80
2021/11/02 03:05:23;;;;;;;3.42;0.90;;;;;;;;;;4994636;28;20042;-81
2021/11/02 03:07:58;;;;;;;3.97;1.25;;;;;;;;;;4994643;28;20480;-86
2021/11/02 03:10:30;;;;;;;1.88;0.80;;;;;;;;;;4977032;28;20046;-82
2021/11/02 03:13:02;;;;;;;7.53;1.13;;;;;;;;;;4993180;28;20046;-75
2021/11/02 03:18:28;;;;;;;2.85;1.10;;;;;;;;;;4977084;28;20074;-86
2021/11/02 03:57:42;;;;;;;7.05;2.05;;;;;;;;;;4992548;28;20070;-80
2021/11/02 05:54:52;;;;;;;7.82;1.90;;;;;;;;;;4959392;28;20047;-74
2021/11/02 06:00:16;;;;;;;5.28;1.77;;;;;;;;;;4958553;28;20050;-74
2021/11/02 06:28:13;;;;;;;5.03;1.58;;;;;;;;;;4961519;28;20460;-74
2021/11/02 06:34:05;;;;;;;3.58;1.17;;;;;;;;;;4972584;28;20385;-76
2021/11/02 06:56:44;;;;;;;5.35;1.48;;;;;;;;;;4975043;28;20446;-72
2021/11/02 07:19:30;;;;;;;8.82;2.60;;;;;;;;;;4955600;29;20043;-72
2021/11/02 07:22:19;;;;;;;6.75;1.80;;;;;;;;;;4955431;28;20474;-73
2021/11/02 08:48:12;;;;;;;4.18;1.60;;;;;;;;;;4916096;29;20048;-75
2021/11/02 08:50:49;;;;;;;5.07;1.50;;;;;;;;;;4916583;29;20072;-75
2021/11/02 08:53:18;;;;;;;3.92;1.13;;;;;;;;;;4914920;29;20103;-75
2021/11/02 08:55:45;;;;;;;3.40;1.17;;;;;;;;;;4915027;29;20539;-73
2021/11/02 08:58:14;;;;;;;3.28;1.33;;;;;;;;;;4916099;29;20116;-75
2021/11/02 09:00:42;;;;;;;6.15;2.25;;;;;;;;;;4916075;29;20047;-73
2021/11/02 09:03:20;;;;;;;3.10;1.30;;;;;;;;;;4914736;29;20390;-78
2021/11/02 09:05:55;;;;;;;3.63;1.27;;;;;;;;;;4913369;29;20076;-72
2021/11/02 09:08:23;;;;;;;2.55;1.10;;;;;;;;;;4913486;29;20056;-75
2021/11/02 09:10:52;;;;;;;4.25;1.23;;;;;;;;;;4913721;29;20052;-75
2021/11/02 09:13:23;;;;;;;4.45;1.73;;;;;;;;;;4908098;29;20060;-79
2021/11/02 09:15:54;;;;;;;4.22;1.20;;;;;;;;;;4920266;29;20482;-75
2021/11/02 09:18:25;;;;;;;6.20;1.40;;;;;;;;;;4918644;29;20040;-74
2021/11/02 09:20:52;;;;;;;3.90;1.10;;;;;;;;;;4919711;29;20549;-80
2021/11/02 09:23:20;;;;;;;3.88;1.40;;;;;;;;;;4940170;29;20047;-78
2021/11/02 09:25:48;;;;;;;2.85;1.00;;;;;;;;;;4948284;29;20048;-79
2021/11/02 09:28:16;;;;;;;3.47;1.35;;;;;;;;;;4941278;29;20123;-74
2021/11/02 09:30:45;;;;;;;3.35;1.05;;;;;;;;;;4938473;29;20054;-78
2021/11/02 09:33:12;;;;;;;3.63;1.42;;;;;;;;;;4937218;29;20186;-74
2021/11/02 09:35:40;;;;;;;2.58;1.00;;;;;;;;;;4938643;29;20114;-74
2021/11/02 09:38:15;;;;;;;4.82;1.40;;;;;;;;;;4937308;29;20039;-74
2021/11/02 09:41:03;;;;;;;3.78;1.25;;;;;;;;;;4937146;29;20516;-74
2021/11/02 09:43:53;;;;;;;3.03;0.90;;;;;;;;;;4938165;29;20112;-74
2021/11/02 09:46:36;;;;;;;3.85;1.00;;;;;;;;;;4937022;29;20052;-78
2021/11/02 09:49:08;;;;;;;2.72;1.25;;;;;;;;;;4938214;29;20103;-72
2021/11/02 09:51:39;;;;;;;4.78;1.20;;;;;;;;;;4937434;29;20115;-76
2021/11/02 09:54:08;;;;;;;2.85;0.98;;;;;;;;;;4935933;29;20039;-76
2021/11/02 09:57:03;;;;;;;5.78;1.30;;;;;;;;;;4937153;29;20063;-73
2021/11/02 09:59:50;;;;;;;3.55;1.10;;;;;;;;;;4938062;29;20461;-73
2021/11/02 10:02:38;;;;;;;3.83;1.17;;;;;;;;;;4937969;29;20043;-73
2021/11/02 10:05:22;;;;;;;6.78;1.70;;;;;;;;;;4945044;29;20121;-78
2021/11/02 10:08:01;;;;;;;5.88;1.13;;;;;;;;;;4945238;29;20052;-72
2021/11/02 10:11:14;;;;;;;8.13;1.50;;;;;;;;;;4945843;29;20095;-72
2021/11/02 10:13:52;;;;;;;5.22;1.30;;;;;;;;;;4937720;29;20040;-76
2021/11/02 10:16:31;;;;;;;3.25;1.25;;;;;;;;;;4944522;29;20039;-76
2021/11/02 10:19:12;;;;;;;3.95;1.45;;;;;;;;;;4943338;29;20126;-79
2021/11/02 10:21:59;;;;;;;4.93;1.48;;;;;;;;;;4942362;28;20167;-73
2021/11/02 10:24:45;;;;;;;6.18;1.60;;;;;;;;;;4942037;29;20047;-79
2021/11/02 10:27:16;;;;;;;7.15;1.48;;;;;;;;;;4941019;29;20032;-78
2021/11/02 10:30:03;;;;;;;4.32;1.17;;;;;;;;;;4942171;29;20035;-76
2021/11/02 10:32:41;;;;;;;7.13;1.40;;;;;;;;;;4943221;29;20580;-77
2021/11/02 10:35:08;;;;;;;6.70;1.55;;;;;;;;;;4939841;29;20047;-74
2021/11/02 10:37:53;;;;;;;2.88;1.15;;;;;;;;;;4915385;29;20043;-79
2021/11/02 10:40:25;;;;;;;3.92;1.30;;;;;;;;;;4940859;29;20154;-74
2021/11/02 10:43:03;;;;;;;4.35;1.83;;;;;;;;;;4939339;29;20070;-75
2021/11/02 10:45:38;;;;;;;4.95;1.42;;;;;;;;;;4941195;29;20072;-77
2021/11/02 10:48:09;;;;;;;3.53;1.20;;;;;;;;;;4939885;29;20142;-77
2021/11/02 10:50:57;;;;;;;3.38;1.60;;;;;;;;;;4941173;29;20051;-76
2021/11/02 10:53:41;;;;;;;5.03;1.40;;;;;;;;;;4940518;29;20047;-78
2021/11/02 10:56:37;;;;;;;2.35;1.00;;;;;;;;;;4943031;29;20114;-78
2021/11/02 10:59:13;;;;;;;4.05;1.20;;;;;;;;;;4939030;29;20044;-76
2021/11/02 11:01:45;;;;;;;4.53;1.33;;;;;;;;;;4921528;29;20409;-77
2021/11/02 11:04:15;;;;;;;2.78;1.10;;;;;;;;;;4939788;29;20114;-72
2021/11/02 11:06:45;;;;;;;4.60;1.48;;;;;;;;;;4941613;28;20658;-79
2021/11/02 11:09:13;;;;;;;2.38;0.93;;;;;;;;;;4938768;29;20050;-77
2021/11/02 11:11:45;;;;;;;3.50;1.10;;;;;;;;;;4941504;28;20066;-72
2021/11/02 11:14:16;;;;;;;3.38;1.20;;;;;;;;;;4940268;29;20078;-73
2021/11/02 11:16:48;;;;;;;3.13;1.05;;;;;;;;;;4940839;29;20050;-78
2021/11/02 11:19:19;;;;;;;4.88;1.23;;;;;;;;;;4942189;29;20044;-73
2021/11/02 11:21:47;;;;;;;2.08;0.88;;;;;;;;;;4940905;28;20763;-73
2021/11/02 11:24:21;;;;;;;4.03;0.90;;;;;;;;;;4941934;29;20086;-79
2021/11/02 11:26:50;;;;;;;3.63;1.10;;;;;;;;;;4942883;29;20408;-73
2021/11/02 11:29:19;;;;;;;2.25;0.85;;;;;;;;;;4933453;29;20139;-75
2021/11/02 11:31:49;;;;;;;3.88;0.98;;;;;;;;;;4934598;29;20048;-76
2021/11/02 11:34:17;;;;;;;1.88;0.80;;;;;;;;;;4943124;28;20047;-75
2021/11/02 11:36:48;;;;;;;4.13;0.82;;;;;;;;;;4940242;28;20404;-76
2021/11/02 11:39:18;;;;;;;3.47;0.87;;;;;;;;;;4943872;28;20142;-76
2021/11/02 11:41:52;;;;;;;2.55;1.00;;;;;;;;;;4938512;29;20040;-77
2021/11/02 11:44:23;;;;;;;4.60;0.88;;;;;;;;;;4940807;29;20104;-79
2021/11/02 11:47:02;;;;;;;2.88;0.80;;;;;;;;;;4940204;29;20122;-72
2021/11/02 11:49:32;;;;;;;2.60;1.02;;;;;;;;;;4936744;29;20055;-71
2021/11/02 11:52:01;;;;;;;4.10;1.20;;;;;;;;;;4937538;29;20043;-72
2021/11/02 11:54:43;;;;;;;4.97;1.08;;;;;;;;;;4931872;29;20094;-71
2021/11/02 11:57:11;;;;;;;;;;;;;;;;;;4933470;29;20564;-73
2021/11/02 11:59:38;;;;;;;2.65;0.93;;;;;;;;;;4932563;29;19926;-81
2021/11/02 12:02:14;;;;;;;2.67;1.10;;;;;;;;;;4929829;29;20044;-77
2021/11/02 12:04:49;;;;;;;1.10;0.60;;;;;;;;;;4933345;29;20050;-77
2021/11/02 12:07:33;;;;;;;3.70;1.10;;;;;;;;;;4933691;29;20040;-76
2021/11/02 12:10:08;;;;;;;1.55;0.75;;;;;;;;;;4931681;29;20155;-73
2021/11/02 12:12:40;;;;;;;4.43;1.30;;;;;;;;;;4932638;29;20050;-76
2021/11/02 12:15:10;;;;;;;;;;;;;;;;;;4933737;29;20047;-78
2021/11/02 12:17:41;;;;;;;1.90;1.08;;;;;;;;;;4932685;29;20018;-78
2021/11/02 12:20:11;;;;;;;3.00;1.00;;;;;;;;;;4933146;29;20071;-79
2021/11/02 12:22:53;;;;;;;4.03;1.30;;;;;;;;;;4933065;29;20056;-73
2021/11/02 12:25:28;;;;;;;2.63;1.17;;;;;;;;;;4930947;29;20056;-76
2021/11/02 12:28:00;;;;;;;5.97;1.35;;;;;;;;;;4932916;29;20050;-73
2021/11/02 12:30:28;;;;;;;3.20;1.33;;;;;;;;;;4931405;29;20341;-78
2021/11/02 12:32:57;;;;;;;4.40;1.40;;;;;;;;;;4935112;29;20044;-77
2021/11/02 12:35:32;;;;;;;4.95;1.40;;;;;;;;;;4935393;29;20048;-73
2021/11/02 12:38:02;;;;;;;2.15;1.13;;;;;;;;;;4918186;29;20139;-72
2021/11/02 12:40:31;;;;;;;2.33;0.80;;;;;;;;;;4935455;29;20086;-72
2021/11/02 12:43:25;;;;;;;2.28;1.10;;;;;;;;;;4935063;29;20044;-73
2021/11/02 12:45:55;;;;;;;2.92;1.05;;;;;;;;;;4935840;29;20552;-72
2021/11/02 12:48:23;;;;;;;3.45;1.20;;;;;;;;;;4939334;29;20059;-77
2021/11/02 12:51:12;;;;;;;3.40;1.27;;;;;;;;;;4939131;29;20083;-73
2021/11/02 12:53:42;;;;;;;4.63;1.85;;;;;;;;;;4939624;29;20390;-71
2021/11/02 12:56:18;;;;;;;4.28;1.48;;;;;;;;;;4938880;29;20059;-71
2021/11/02 12:58:49;;;;;;;8.35;1.55;;;;;;;;;;4938647;29;20058;-75
2021/11/02 13:01:34;;;;;;;4.15;1.73;;;;;;;;;;4938688;29;20044;-77
2021/11/02 13:04:11;;;;;;;4.05;1.80;;;;;;;;;;4937319;29;20496;-77
2021/11/02 13:06:45;;;;;;;4.50;1.23;;;;;;;;;;4939438;29;20451;-78
2021/11/02 13:09:21;;;;;;;5.70;1.25;;;;;;;;;;4938726;29;20068;-72
2021/11/02 13:12:00;;;;;;;4.50;1.65;;;;;;;;;;4939204;29;20042;-77
2021/11/02 13:14:49;;;;;;;6.30;1.33;;;;;;;;;;4938660;29;20430;-78
2021/11/02 13:17:18;;;;;;;4.63;1.20;;;;;;;;;;4937330;29;20035;-77
2021/11/02 13:19:48;;;;;;;2.05;1.10;;;;;;;;;;4937899;29;20115;-77
2021/11/02 13:22:21;;;;;;;3.50;1.20;;;;;;;;;;4938238;29;20131;-77
2021/11/02 13:25:22;;;;;;;3.47;1.10;;;;;;;;;;4936233;29;20502;-78
2021/11/02 13:27:55;;;;;;;3.03;1.10;;;;;;;;;;4937272;29;20138;-77
2021/11/02 13:30:42;;;;;;;3.20;1.08;;;;;;;;;;4937507;29;20047;-72
2021/11/02 13:33:17;;;;;;;3.15;1.30;;;;;;;;;;4936839;29;20077;-77
2021/11/02 13:35:53;;;;;;;4.53;1.13;;;;;;;;;;4937495;29;20087;-72
2021/11/02 13:38:29;;;;;;;1.90;1.15;;;;;;;;;;4938157;29;20103;-77
2021/11/02 13:41:01;;;;;;;6.30;1.30;;;;;;;;;;4936643;29;20055;-82
2021/11/02 13:43:40;;;;;;;3.47;1.05;;;;;;;;;;4938289;29;20505;-78
2021/11/02 13:46:09;;;;;;;1.95;0.98;;;;;;;;;;4938224;29;20541;-74
2021/11/02 13:48:38;;;;;;;4.57;1.50;;;;;;;;;;4938711;29;20119;-74
2021/11/02 13:51:07;;;;;;;4.93;1.75;;;;;;;;;;4938091;29;20453;-73
2021/11/02 13:53:35;;;;;;;2.70;1.23;;;;;;;;;;4938557;29;20434;-82
2021/11/02 13:56:04;;;;;;;2.95;1.60;;;;;;;;;;4938290;29;20044;-73
2021/11/02 13:58:34;;;;;;;3.25;1.23;;;;;;;;;;4938251;29;20071;-72
2021/11/02 14:01:03;;;;;;;3.15;1.23;;;;;;;;;;4937556;29;20044;-80
2021/11/02 14:03:36;;;;;;;3.55;1.08;;;;;;;;;;4937893;29;20524;-72
2021/11/02 14:06:04;;;;;;;4.78;1.40;;;;;;;;;;4936915;29;20048;-73
2021/11/02 14:08:34;;;;;;;5.93;1.90;;;;;;;;;;4938323;29;20127;-77
2021/11/02 14:11:01;;;;;;;5.93;1.67;;;;;;;;;;4937708;29;20054;-76
2021/11/02 14:13:50;;;;;;;4.43;1.33;;;;;;;;;;4938338;29;20125;-72
2021/11/02 14:16:35;;;;;;;3.80;1.40;;;;;;;;;;4924828;29;20867;-80
2021/11/02 14:19:04;;;;;;;4.28;1.30;;;;;;;;;;4916239;29;20040;-77
2021/11/02 14:21:48;;;;;;;3.58;1.38;;;;;;;;;;4916535;29;20048;-72
2021/11/02 14:24:29;;;;;;;6.15;1.88;;;;;;;;;;4916597;29;20473;-73
2021/11/02 14:26:57;;;;;;;7.88;2.13;;;;;;;;;;4916595;29;20101;-73
2021/11/02 14:29:44;;;;;;;6.22;1.45;;;;;;;;;;4916763;29;20043;-73
2021/11/02 14:32:11;;;;;;;5.78;1.65;;;;;;;;;;4916552;29;20418;-77
2021/11/02 14:34:39;;;;;;;4.68;1.48;;;;;;;;;;4916009;29;20528;-76
2021/11/02 14:37:11;;;;;;;5.38;1.63;;;;;;;;;;4916310;29;20497;-78
2021/11/02 14:39:39;;;;;;;;;;;;;;;;;;4916643;29;20111;-79
2021/11/02 14:42:07;;;;;;;3.75;1.42;;;;;;;;;;4916372;29;19923;-74
2021/11/02 14:44:35;;;;;;;6.47;1.70;;;;;;;;;;4916188;29;20483;-76
2021/11/02 14:47:03;;;;;;;6.13;1.80;;;;;;;;;;4913189;29;20076;-74
2021/11/02 14:49:30;;;;;;;5.57;1.30;;;;;;;;;;4914926;29;20108;-72
2021/11/02 14:52:00;;;;;;;14.07;1.55;;;;;;;;;;4916265;29;20132;-72
2021/11/02 14:54:35;;;;;;;4.10;1.17;;;;;;;;;;4915965;29;20154;-71
2021/11/02 14:57:19;;;;;;;6.43;1.60;;;;;;;;;;4915752;29;20073;-72
2021/11/02 14:59:57;;;;;;;9.35;1.63;;;;;;;;;;4914512;29;20059;-72
2021/11/02 15:02:38;;;;;;;8.77;2.33;;;;;;;;;;4915766;29;20071;-71
2021/11/02 15:05:10;;;;;;;4.75;1.27;;;;;;;;;;4914527;29;20524;-79
2021/11/02 15:07:40;;;;;;;8.90;1.43;;;;;;;;;;4915759;29;20056;-72
2021/11/02 15:10:09;;;;;;;3.30;1.38;;;;;;;;;;4915061;29;20108;-71
2021/11/02 15:12:38;;;;;;;6.40;1.70;;;;;;;;;;4914425;29;20064;-72
2021/11/02 15:15:07;;;;;;;4.93;1.45;;;;;;;;;;4915361;29;20055;-76
2021/11/02 15:17:36;;;;;;;5.72;1.20;;;;;;;;;;4915326;29;20052;-76
2021/11/02 15:20:25;;;;;;;4.50;1.45;;;;;;;;;;4915153;29;20054;-78
2021/11/02 15:22:57;;;;;;;4.90;1.13;;;;;;;;;;4914601;29;20047;-75
2021/11/02 15:25:27;;;;;;;7.70;1.55;;;;;;;;;;4914214;29;20107;-70
2021/11/02 15:27:59;;;;;;;5.10;1.60;;;;;;;;;;4914225;29;20052;-71
2021/11/02 15:30:26;;;;;;;;;;;;;;;;;;4913528;29;20056;-73
2021/11/02 15:32:55;;;;;;;10.50;5.13;;;;;;;;;;4933671;28;19933;-71
2021/11/02 15:35:24;;;;;;;11.75;1.80;;;;;;;;;;4951387;29;20061;-72
2021/11/02 15:38:02;;;;;;;6.20;1.70;;;;;;;;;;4942576;29;20066;-71
2021/11/02 15:40:39;;;;;;;7.50;1.58;;;;;;;;;;4913890;29;20206;-72
2021/11/02 15:43:10;;;;;;;4.57;1.60;;;;;;;;;;4914415;29;20048;-76
2021/11/02 15:45:39;;;;;;;3.42;1.45;;;;;;;;;;4912828;29;20067;-71
2021/11/02 15:48:18;;;;;;;9.38;1.90;;;;;;;;;;4909965;29;20451;-71
2021/11/02 15:50:56;;;;;;;3.97;1.30;;;;;;;;;;4912742;29;20135;-79
2021/11/02 15:53:28;;;;;;;8.95;1.90;;;;;;;;;;4913997;29;20056;-79
2021/11/02 15:55:57;;;;;;;9.05;2.10;;;;;;;;;;4914480;29;20119;-79
2021/11/02 15:58:25;;;;;;;4.72;1.40;;;;;;;;;;4912920;29;20048;-71
2021/11/02 16:00:54;;;;;;;6.55;1.50;;;;;;;;;;4914305;29;20045;-79
2021/11/02 16:03:30;;;;;;;7.00;1.60;;;;;;;;;;4914085;29;20092;-72
2021/11/02 16:05:57;;;;;;;7.82;1.75;;;;;;;;;;4912988;29;20048;-76
2021/11/02 16:08:26;;;;;;;3.95;1.33;;;;;;;;;;4913812;29;20055;-71
2021/11/02 16:10:54;;;;;;;5.38;2.30;;;;;;;;;;4914169;29;20051;-80
2021/11/02 16:13:26;;;;;;;6.25;2.35;;;;;;;;;;4912423;29;20059;-73
2021/11/02 16:15:57;;;;;;;5.40;2.15;;;;;;;;;;4912058;29;20071;-71
2021/11/02 16:18:33;;;;;;;8.05;2.67;;;;;;;;;;4911664;29;20502;-79
2021/11/02 16:21:02;;;;;;;6.18;2.08;;;;;;;;;;4910062;29;20052;-76
2021/11/02 16:23:40;;;;;;;5.55;1.45;;;;;;;;;;4872371;29;1165621;-78
2021/11/02 16:26:31;;;;;;;7.90;1.50;;;;;;;;;;4913453;29;20040;-72
2021/11/02 16:29:08;;;;;;;6.95;1.58;;;;;;;;;;4918943;29;20083;-71
2021/11/02 16:31:36;;;;;;;4.57;1.73;;;;;;;;;;4926690;29;20048;-76
2021/11/02 16:34:23;;;;;;;8.55;3.10;;;;;;;;;;4934956;29;20043;-78
2021/11/02 16:36:52;;;;;;;3.92;1.60;;;;;;;;;;4935092;29;20048;-78
2021/11/02 16:39:21;;;;;;;3.55;1.70;;;;;;;;;;4934769;29;20039;-76
2021/11/02 16:42:03;;;;;;;6.07;1.77;;;;;;;;;;4934784;29;20055;-71
2021/11/02 16:44:39;;;;;;;5.68;1.80;;;;;;;;;;4935705;29;20122;-71
2021/11/02 16:47:11;;;;;;;7.75;1.73;;;;;;;;;;4935186;29;20047;-71
2021/11/02 16:49:39;;;;;;;8.50;2.53;;;;;;;;;;4934315;29;20131;-71
2021/11/02 16:52:11;;;;;;;5.90;1.58;;;;;;;;;;4932097;29;20043;-78
2021/11/02 16:54:44;;;;;;;3.13;1.38;;;;;;;;;;4934544;29;20054;-71
2021/11/02 16:57:24;;;;;;;6.90;1.60;;;;;;;;;;4934690;29;20090;-78
2021/11/02 16:59:53;;;;;;;5.40;2.17;;;;;;;;;;4934659;29;20502;-79
2021/11/02 17:02:21;;;;;;;6.97;1.70;;;;;;;;;;4934289;29;20231;-76
2021/11/02 17:05:08;;;;;;;8.35;2.05;;;;;;;;;;4934248;29;20044;-78
2021/11/02 17:07:35;;;;;;;7.80;2.17;;;;;;;;;;4934076;29;20132;-71
2021/11/02 17:10:22;;;;;;;6.40;2.33;;;;;;;;;;4934143;29;20126;-76
2021/11/02 17:13:04;;;;;;;4.85;1.90;;;;;;;;;;4934390;29;20079;-71
2021/11/02 17:15:37;;;;;;;12.07;5.00;;;;;;;;;;4933921;29;20494;-71
2021/11/02 17:18:06;;;;;;;12.68;5.75;;;;;;;;;;4934231;29;20039;-76
2021/11/02 17:20:36;;;;;;;8.15;4.03;;;;;;;;;;4934231;29;20409;-78
2021/11/02 17:23:04;;;;;;;4.80;2.58;;;;;;;;;;4932716;29;20111;-78
2021/11/02 17:25:32;;;;;;;5.97;2.55;;;;;;;;;;4933926;29;20413;-71
2021/11/02 17:28:00;;;;;;;11.38;5.25;;;;;;;;;;4934433;29;20043;-78
2021/11/02 17:30:31;;;;;;;9.80;3.70;;;;;;;;;;4934118;29;20039;-71
2021/11/02 17:33:02;;;;;;;6.57;2.67;;;;;;;;;;4937040;29;20043;-78
2021/11/02 17:35:30;;;;;;;6.47;3.10;;;;;;;;;;4937796;29;20068;-78
2021/11/02 17:37:59;;;;;;;11.13;3.60;;;;;;;;;;4937567;29;20050;-76
2021/11/02 17:40:27;;;;;;;15.02;4.20;;;;;;;;;;4936746;29;20047;-78
2021/11/02 17:42:57;;;;;;;11.80;4.72;;;;;;;;;;4937885;29;20386;-72
2021/11/02 17:45:26;;;;;;;8.30;3.95;;;;;;;;;;4937623;29;20048;-71
2021/11/02 17:47:54;;;;;;;13.82;4.28;;;;;;;;;;4936678;29;20059;-78
2021/11/02 17:50:26;;;;;;;10.55;4.30;;;;;;;;;;4937502;29;20057;-72
2021/11/02 17:52:55;;;;;;;12.90;4.22;;;;;;;;;;4933745;29;20119;-76
2021/11/02 17:55:23;;;;;;;14.13;5.10;;;;;;;;;;4936887;29;20058;-78
2021/11/02 17:57:52;;;;;;;14.45;5.45;;;;;;;;;;4936839;29;20550;-71
2021/11/02 18:00:21;;;;;;;13.98;4.43;;;;;;;;;;4936958;29;20103;-77
2021/11/02 18:02:49;;;;;;;8.93;3.95;;;;;;;;;;4935998;29;20390;-71
2021/11/02 18:05:18;;;;;;;13.30;4.97;;;;;;;;;;4936187;29;20043;-71
2021/11/02 18:07:46;;;;;;;11.52;5.72;;;;;;;;;;4936864;29;20513;-76
2021/11/02 18:10:14;;;;;;;15.57;6.03;;;;;;;;;;4943276;29;20039;-76
2021/11/02 18:12:42;;;;;;;18.30;5.15;;;;;;;;;;4947052;29;20217;-72
2021/11/02 18:15:12;;;;;;;11.60;4.13;;;;;;;;;;4941899;28;20044;-72
2021/11/02 18:17:47;;;;;;;12.40;4.43;;;;;;;;;;4944325;29;20045;-72
2021/11/02 18:20:16;;;;;;;14.85;7.15;;;;;;;;;;4951747;29;20122;-73
2021/11/02 18:22:46;;;;;;;9.35;3.53;;;;;;;;;;4952768;29;20052;-76
2021/11/02 18:25:16;;;;;;;7.35;3.15;;;;;;;;;;4953067;29;20142;-72
2021/11/02 18:27:44;;;;;;;9.68;3.90;;;;;;;;;;4954204;29;20047;-70
2021/11/02 18:30:12;;;;;;;14.20;6.20;;;;;;;;;;4952349;29;20040;-69
2021/11/02 18:32:40;;;;;;;15.05;5.57;;;;;;;;;;4951215;28;20035;-79
2021/11/02 18:35:09;;;;;;;11.40;5.93;;;;;;;;;;4953893;28;20547;-72
2021/11/02 18:37:36;;;;;;;13.90;6.18;;;;;;;;;;4953529;29;20086;-80
2021/11/02 18:40:10;;;;;;;17.65;6.72;;;;;;;;;;4954045;29;20496;-81
2021/11/02 18:42:40;;;;;;;15.07;5.80;;;;;;;;;;4953758;28;20050;-77
2021/11/02 18:45:10;;;;;;;16.33;6.70;;;;;;;;;;4953224;29;20051;-77
2021/11/02 18:47:38;;;;;;;15.18;6.10;;;;;;;;;;4954055;29;20290;-79
2021/11/02 18:50:06;;;;;;;11.50;5.07;;;;;;;;;;4952807;29;20408;-78
2021/11/02 18:52:36;;;;;;;15.60;5.72;;;;;;;;;;4953763;28;20055;-72
2021/11/02 18:55:05;;;;;;;14.75;7.05;;;;;;;;;;4952488;29;20552;-73
2021/11/02 18:57:33;;;;;;;17.13;7.40;;;;;;;;;;4952294;29;20051;-81
2021/11/02 19:00:02;;;;;;;21.35;8.52;;;;;;;;;;4953648;29;20042;-73
2021/11/02 19:02:29;;;;;;;32.28;17.40;;;;;;;;;;4951526;29;20509;-73
2021/11/02 19:04:57;;;;;;;85.65;42.53;;;;;;;;;;4953526;29;20478;-73
2021/11/02 19:07:24;;;;;;;65.10;32.80;;;;;;;;;;4953424;29;20082;-72
2021/11/02 19:09:52;;;;;;;59.40;28.98;;;;;;;;;;4953574;29;20239;-73
2021/11/02 19:12:19;;;;;;;24.92;11.95;;;;;;;;;;4952772;29;20147;-80
2021/11/02 19:14:47;;;;;;;29.40;12.98;;;;;;;;;;4953020;29;20054;-75
2021/11/02 19:17:16;;;;;;;34.17;17.73;;;;;;;;;;4953181;28;20445;-74
2021/11/02 19:19:44;;;;;;;31.48;14.88;;;;;;;;;;4953403;29;20039;-73
2021/11/02 19:22:12;;;;;;;24.25;8.30;;;;;;;;;;4916518;29;20055;-77
2021/11/02 19:24:39;;;;;;;14.65;8.32;;;;;;;;;;4917525;29;20036;-78
2021/11/02 19:27:08;;;;;;;12.38;6.15;;;;;;;;;;4916812;29;20055;-78
2021/11/02 19:29:36;;;;;;;17.05;6.53;;;;;;;;;;4917004;29;20402;-76
2021/11/02 19:32:06;;;;;;;15.20;7.80;;;;;;;;;;4915977;29;20075;-78
2021/11/02 19:34:33;;;;;;;22.15;10.25;;;;;;;;;;4915041;29;20055;-74
2021/11/02 19:37:02;;;;;;;20.67;8.30;;;;;;;;;;4914598;29;20044;-78
2021/11/02 19:39:30;;;;;;;21.70;10.13;;;;;;;;;;4914923;29;20055;-76
2021/11/02 19:41:59;;;;;;;22.20;9.38;;;;;;;;;;4932978;29;20537;-75
2021/11/02 19:44:33;;;;;;;19.38;10.23;;;;;;;;;;4935730;29;20046;-78
2021/11/02 19:47:01;;;;;;;17.88;10.32;;;;;;;;;;4936763;29;20386;-76
2021/11/02 19:49:29;;;;;;;25.88;11.90;;;;;;;;;;4935587;29;20528;-78
2021/11/02 19:51:57;;;;;;;20.95;9.45;;;;;;;;;;4935413;29;20553;-74
2021/11/02 19:54:24;;;;;;;26.10;10.90;;;;;;;;;;4933988;29;20055;-78
2021/11/02 19:56:54;;;;;;;26.80;10.68;;;;;;;;;;4934390;29;20058;-74
2021/11/02 19:59:22;;;;;;;12.57;6.45;;;;;;;;;;4935565;29;20048;-78
2021/11/02 20:01:52;;;;;;;19.25;6.75;;;;;;;;;;4935379;29;20466;-79
2021/11/02 20:04:20;;;;;;;20.05;8.43;;;;;;;;;;4935449;29;20036;-76
2021/11/02 20:06:49;;;;;;;30.20;11.60;;;;;;;;;;4934680;29;20464;-78
2021/11/02 20:09:19;;;;;;;30.40;10.70;;;;;;;;;;4933886;29;20043;-79
2021/11/02 20:11:51;;;;;;;26.80;10.73;;;;;;;;;;4922012;29;20058;-76
2021/11/02 20:14:23;;;;;;;29.05;11.60;;;;;;;;;;4928631;29;20127;-77
2021/11/02 20:16:54;;;;;;;23.48;10.18;;;;;;;;;;4930889;29;20123;-75
2021/11/02 20:19:31;;;;;;;31.90;12.20;;;;;;;;;;4914880;29;20052;-85
2021/11/02 20:22:00;;;;;;;48.28;19.60;;;;;;;;;;4930966;23;20054;-75
2021/11/02 20:24:33;;;;;;;48.90;21.02;;;;;;;;;;4975954;28;20051;-79
2021/11/02 20:27:02;;;;;;;45.70;19.13;;;;;;;;;;4971604;28;20456;-75